sensor_id;sensor_type;location;lat;lon;timestamp;P1;durP1;ratioP1;P2;durP2;ratioP2
12316;SDS011;6222;50.866;6.744;2022-07-21T00:00:20;7.63;;;6.30;;
12316;SDS011;6222;50.866;6.744;2022-07-21T00:02:50;7.55;;;6.68;;
12316;SDS011;6222;50.866;6.744;2022-07-21T00:05:17;7.68;;;6.60;;
12316;SDS011;6222;50.866;6.744;2022-07-21T00:07:45;8.70;;;6.65;;
12316;SDS011;6222;50.866;6.744;2022-07-21T00:10:12;8.38;;;7.00;;
12316;SDS011;6222;50.866;6.744;2022-07-21T00:12:40;11.05;;;7.22;;
12316;SDS011;6222;50.866;6.744;2022-07-21T00:15:07;8.35;;;6.97;;
12316;SDS011;6222;50.866;6.744;2022-07-21T00:17:35;8.50;;;6.77;;
12316;SDS011;6222;50.866;6.744;2022-07-21T00:20:04;9.45;;;7.38;;
12316;SDS011;6222;50.866;6.744;2022-07-21T00:22:32;8.82;;;7.05;;
12316;SDS011;6222;50.866;6.744;2022-07-21T00:24:59;8.80;;;7.00;;
12316;SDS011;6222;50.866;6.744;2022-07-21T00:27:27;9.65;;;8.00;;
12316;SDS011;6222;50.866;6.744;2022-07-21T00:29:54;8.18;;;7.18;;
12316;SDS011;6222;50.866;6.744;2022-07-21T00:32:21;10.45;;;7.82;;
12316;SDS011;6222;50.866;6.744;2022-07-21T00:34:48;9.55;;;7.70;;
12316;SDS011;6222;50.866;6.744;2022-07-21T00:37:17;8.93;;;7.00;;
12316;SDS011;6222;50.866;6.744;2022-07-21T00:39:44;10.45;;;7.28;;
12316;SDS011;6222;50.866;6.744;2022-07-21T00:42:19;10.85;;;7.32;;
12316;SDS011;6222;50.866;6.744;2022-07-21T00:44:46;9.60;;;7.40;;
12316;SDS011;6222;50.866;6.744;2022-07-21T00:47:13;8.60;;;7.15;;
12316;SDS011;6222;50.866;6.744;2022-07-21T00:49:40;11.02;;;7.38;;
12316;SDS011;6222;50.866;6.744;2022-07-21T00:52:09;8.88;;;7.15;;
12316;SDS011;6222;50.866;6.744;2022-07-21T00:54:38;8.45;;;6.63;;
12316;SDS011;6222;50.866;6.744;2022-07-21T00:57:05;9.43;;;7.03;;
12316;SDS011;6222;50.866;6.744;2022-07-21T00:59:32;8.30;;;6.78;;
12316;SDS011;6222;50.866;6.744;2022-07-21T01:01:59;9.40;;;6.93;;
12316;SDS011;6222;50.866;6.744;2022-07-21T01:04:26;7.80;;;6.80;;
12316;SDS011;6222;50.866;6.744;2022-07-21T01:06:53;9.20;;;7.03;;
12316;SDS011;6222;50.866;6.744;2022-07-21T01:09:21;8.82;;;6.50;;
12316;SDS011;6222;50.866;6.744;2022-07-21T01:11:49;7.68;;;6.88;;
12316;SDS011;6222;50.866;6.744;2022-07-21T01:14:17;7.57;;;6.38;;
12316;SDS011;6222;50.866;6.744;2022-07-21T01:16:44;8.73;;;6.60;;
12316;SDS011;6222;50.866;6.744;2022-07-21T01:19:11;7.47;;;6.45;;
12316;SDS011;6222;50.866;6.744;2022-07-21T01:21:40;11.05;;;6.40;;
12316;SDS011;6222;50.866;6.744;2022-07-21T01:24:08;8.43;;;6.35;;
12316;SDS011;6222;50.866;6.744;2022-07-21T01:26:39;9.65;;;6.60;;
12316;SDS011;6222;50.866;6.744;2022-07-21T01:29:07;8.20;;;6.53;;
12316;SDS011;6222;50.866;6.744;2022-07-21T01:31:35;7.28;;;5.88;;
12316;SDS011;6222;50.866;6.744;2022-07-21T01:34:03;7.50;;;6.00;;
12316;SDS011;6222;50.866;6.744;2022-07-21T01:36:30;7.97;;;6.57;;
12316;SDS011;6222;50.866;6.744;2022-07-21T01:38:59;7.60;;;6.30;;
12316;SDS011;6222;50.866;6.744;2022-07-21T01:41:44;6.60;;;5.78;;
12316;SDS011;6222;50.866;6.744;2022-07-21T01:44:12;7.03;;;5.97;;
12316;SDS011;6222;50.866;6.744;2022-07-21T01:46:40;7.18;;;6.45;;
12316;SDS011;6222;50.866;6.744;2022-07-21T01:49:08;8.18;;;6.55;;
12316;SDS011;6222;50.866;6.744;2022-07-21T01:51:36;7.45;;;6.65;;
12316;SDS011;6222;50.866;6.744;2022-07-21T01:54:05;6.85;;;6.15;;
12316;SDS011;6222;50.866;6.744;2022-07-21T01:56:33;6.55;;;5.70;;
12316;SDS011;6222;50.866;6.744;2022-07-21T01:59:00;8.75;;;6.60;;
12316;SDS011;6222;50.866;6.744;2022-07-21T02:01:27;8.47;;;6.40;;
12316;SDS011;6222;50.866;6.744;2022-07-21T02:03:55;8.53;;;7.37;;
12316;SDS011;6222;50.866;6.744;2022-07-21T02:06:22;7.78;;;6.40;;
12316;SDS011;6222;50.866;6.744;2022-07-21T02:08:49;7.95;;;6.40;;
12316;SDS011;6222;50.866;6.744;2022-07-21T02:11:18;8.70;;;6.80;;
12316;SDS011;6222;50.866;6.744;2022-07-21T02:13:46;9.13;;;6.95;;
12316;SDS011;6222;50.866;6.744;2022-07-21T02:16:13;8.52;;;6.93;;
12316;SDS011;6222;50.866;6.744;2022-07-21T02:18:40;8.95;;;6.97;;
12316;SDS011;6222;50.866;6.744;2022-07-21T02:21:08;8.10;;;7.00;;
12316;SDS011;6222;50.866;6.744;2022-07-21T02:23:35;7.82;;;6.93;;
12316;SDS011;6222;50.866;6.744;2022-07-21T02:26:02;9.80;;;7.10;;
12316;SDS011;6222;50.866;6.744;2022-07-21T02:28:31;8.10;;;7.28;;
12316;SDS011;6222;50.866;6.744;2022-07-21T02:30:58;7.90;;;6.80;;
12316;SDS011;6222;50.866;6.744;2022-07-21T02:33:25;9.15;;;7.43;;
12316;SDS011;6222;50.866;6.744;2022-07-21T02:35:52;9.40;;;6.93;;
12316;SDS011;6222;50.866;6.744;2022-07-21T02:38:19;9.07;;;7.07;;
12316;SDS011;6222;50.866;6.744;2022-07-21T02:40:46;8.57;;;7.22;;
12316;SDS011;6222;50.866;6.744;2022-07-21T02:43:13;8.65;;;7.13;;
12316;SDS011;6222;50.866;6.744;2022-07-21T02:45:42;8.30;;;7.07;;
12316;SDS011;6222;50.866;6.744;2022-07-21T02:48:10;9.18;;;7.28;;
12316;SDS011;6222;50.866;6.744;2022-07-21T02:50:38;9.05;;;7.05;;
12316;SDS011;6222;50.866;6.744;2022-07-21T02:53:06;7.95;;;6.70;;
12316;SDS011;6222;50.866;6.744;2022-07-21T02:55:34;9.38;;;6.70;;
12316;SDS011;6222;50.866;6.744;2022-07-21T02:58:05;7.80;;;6.88;;
12316;SDS011;6222;50.866;6.744;2022-07-21T03:00:32;9.55;;;7.22;;
12316;SDS011;6222;50.866;6.744;2022-07-21T03:03:01;8.98;;;7.40;;
12316;SDS011;6222;50.866;6.744;2022-07-21T03:05:28;7.75;;;6.57;;
12316;SDS011;6222;50.866;6.744;2022-07-21T03:07:56;8.60;;;7.18;;
12316;SDS011;6222;50.866;6.744;2022-07-21T03:10:23;9.63;;;6.85;;
12316;SDS011;6222;50.866;6.744;2022-07-21T03:12:50;9.82;;;7.47;;
12316;SDS011;6222;50.866;6.744;2022-07-21T03:15:17;10.80;;;7.65;;
12316;SDS011;6222;50.866;6.744;2022-07-21T03:17:44;10.13;;;6.70;;
12316;SDS011;6222;50.866;6.744;2022-07-21T03:20:13;8.63;;;7.47;;
12316;SDS011;6222;50.866;6.744;2022-07-21T03:22:40;9.07;;;6.65;;
12316;SDS011;6222;50.866;6.744;2022-07-21T03:25:07;9.65;;;6.95;;
12316;SDS011;6222;50.866;6.744;2022-07-21T03:27:35;8.95;;;6.60;;
12316;SDS011;6222;50.866;6.744;2022-07-21T03:30:03;9.55;;;7.07;;
12316;SDS011;6222;50.866;6.744;2022-07-21T03:32:30;8.70;;;6.95;;
12316;SDS011;6222;50.866;6.744;2022-07-21T03:34:57;8.50;;;6.50;;
12316;SDS011;6222;50.866;6.744;2022-07-21T03:37:26;10.32;;;7.18;;
12316;SDS011;6222;50.866;6.744;2022-07-21T03:39:57;7.23;;;6.10;;
12316;SDS011;6222;50.866;6.744;2022-07-21T03:42:25;8.00;;;6.65;;
12316;SDS011;6222;50.866;6.744;2022-07-21T03:44:52;8.25;;;6.63;;
12316;SDS011;6222;50.866;6.744;2022-07-21T03:47:19;8.55;;;6.25;;
12316;SDS011;6222;50.866;6.744;2022-07-21T03:49:46;8.55;;;6.80;;
12316;SDS011;6222;50.866;6.744;2022-07-21T03:52:13;6.45;;;5.70;;
12316;SDS011;6222;50.866;6.744;2022-07-21T03:54:41;7.00;;;5.97;;
12316;SDS011;6222;50.866;6.744;2022-07-21T03:57:09;7.60;;;5.90;;
12316;SDS011;6222;50.866;6.744;2022-07-21T03:59:36;7.90;;;5.68;;
12316;SDS011;6222;50.866;6.744;2022-07-21T04:02:03;6.10;;;5.47;;
12316;SDS011;6222;50.866;6.744;2022-07-21T04:04:30;7.57;;;6.20;;
12316;SDS011;6222;50.866;6.744;2022-07-21T04:06:57;8.50;;;5.93;;
12316;SDS011;6222;50.866;6.744;2022-07-21T04:09:24;9.18;;;6.53;;
12316;SDS011;6222;50.866;6.744;2022-07-21T04:11:53;7.70;;;5.85;;
12316;SDS011;6222;50.866;6.744;2022-07-21T04:14:20;7.28;;;5.88;;
12316;SDS011;6222;50.866;6.744;2022-07-21T04:16:47;8.80;;;5.85;;
12316;SDS011;6222;50.866;6.744;2022-07-21T04:19:14;7.50;;;6.25;;
12316;SDS011;6222;50.866;6.744;2022-07-21T04:21:43;10.38;;;6.57;;
12316;SDS011;6222;50.866;6.744;2022-07-21T04:24:10;7.30;;;6.20;;
12316;SDS011;6222;50.866;6.744;2022-07-21T04:26:37;8.48;;;5.80;;
12316;SDS011;6222;50.866;6.744;2022-07-21T04:29:05;7.80;;;5.88;;
12316;SDS011;6222;50.866;6.744;2022-07-21T04:31:33;8.27;;;6.20;;
12316;SDS011;6222;50.866;6.744;2022-07-21T04:34:00;9.23;;;5.90;;
12316;SDS011;6222;50.866;6.744;2022-07-21T04:36:27;7.68;;;5.57;;
12316;SDS011;6222;50.866;6.744;2022-07-21T04:38:54;8.50;;;6.60;;
12316;SDS011;6222;50.866;6.744;2022-07-21T04:41:22;7.27;;;6.10;;
12316;SDS011;6222;50.866;6.744;2022-07-21T04:43:49;8.10;;;5.93;;
12316;SDS011;6222;50.866;6.744;2022-07-21T04:46:17;8.05;;;6.35;;
12316;SDS011;6222;50.866;6.744;2022-07-21T04:48:45;9.77;;;5.65;;
12316;SDS011;6222;50.866;6.744;2022-07-21T04:51:12;8.68;;;6.38;;
12316;SDS011;6222;50.866;6.744;2022-07-21T04:53:39;7.88;;;6.00;;
12316;SDS011;6222;50.866;6.744;2022-07-21T04:56:06;16.60;;;10.32;;
12316;SDS011;6222;50.866;6.744;2022-07-21T04:58:33;7.97;;;6.30;;
12316;SDS011;6222;50.866;6.744;2022-07-21T05:01:00;7.95;;;5.68;;
12316;SDS011;6222;50.866;6.744;2022-07-21T05:03:29;7.63;;;6.25;;
12316;SDS011;6222;50.866;6.744;2022-07-21T05:05:56;7.47;;;6.38;;
12316;SDS011;6222;50.866;6.744;2022-07-21T05:08:23;7.85;;;6.32;;
12316;SDS011;6222;50.866;6.744;2022-07-21T05:10:51;8.95;;;6.43;;
12316;SDS011;6222;50.866;6.744;2022-07-21T05:13:18;7.97;;;6.72;;
12316;SDS011;6222;50.866;6.744;2022-07-21T05:15:45;7.28;;;6.20;;
12316;SDS011;6222;50.866;6.744;2022-07-21T05:18:13;7.67;;;6.60;;
12316;SDS011;6222;50.866;6.744;2022-07-21T05:20:41;7.65;;;6.55;;
12316;SDS011;6222;50.866;6.744;2022-07-21T05:23:08;6.50;;;5.82;;
12316;SDS011;6222;50.866;6.744;2022-07-21T05:25:35;8.18;;;6.60;;
12316;SDS011;6222;50.866;6.744;2022-07-21T05:28:03;7.43;;;5.85;;
12316;SDS011;6222;50.866;6.744;2022-07-21T05:30:32;9.77;;;8.82;;
12316;SDS011;6222;50.866;6.744;2022-07-21T05:33:00;5.80;;;5.00;;
12316;SDS011;6222;50.866;6.744;2022-07-21T05:35:27;5.55;;;4.28;;
12316;SDS011;6222;50.866;6.744;2022-07-21T05:37:56;4.82;;;3.42;;
12316;SDS011;6222;50.866;6.744;2022-07-21T05:40:24;4.05;;;3.20;;
12316;SDS011;6222;50.866;6.744;2022-07-21T05:42:51;3.67;;;2.80;;
12316;SDS011;6222;50.866;6.744;2022-07-21T05:45:18;4.40;;;3.00;;
12316;SDS011;6222;50.866;6.744;2022-07-21T05:47:45;4.28;;;3.10;;
12316;SDS011;6222;50.866;6.744;2022-07-21T05:50:12;4.25;;;3.13;;
12316;SDS011;6222;50.866;6.744;2022-07-21T05:52:40;3.78;;;2.90;;
12316;SDS011;6222;50.866;6.744;2022-07-21T05:55:08;3.67;;;2.60;;
12316;SDS011;6222;50.866;6.744;2022-07-21T05:57:36;3.80;;;2.70;;
12316;SDS011;6222;50.866;6.744;2022-07-21T06:00:03;5.43;;;2.60;;
12316;SDS011;6222;50.866;6.744;2022-07-21T06:02:31;3.45;;;2.38;;
12316;SDS011;6222;50.866;6.744;2022-07-21T06:04:58;3.20;;;2.50;;
12316;SDS011;6222;50.866;6.744;2022-07-21T06:07:25;4.20;;;2.38;;
12316;SDS011;6222;50.866;6.744;2022-07-21T06:09:52;3.92;;;2.50;;
12316;SDS011;6222;50.866;6.744;2022-07-21T06:12:21;3.10;;;2.10;;
12316;SDS011;6222;50.866;6.744;2022-07-21T06:14:48;3.08;;;2.10;;
12316;SDS011;6222;50.866;6.744;2022-07-21T06:17:15;2.42;;;1.75;;
12316;SDS011;6222;50.866;6.744;2022-07-21T06:19:42;2.77;;;2.13;;
12316;SDS011;6222;50.866;6.744;2022-07-21T06:22:09;2.45;;;1.77;;
12316;SDS011;6222;50.866;6.744;2022-07-21T06:24:36;2.80;;;1.88;;
12316;SDS011;6222;50.866;6.744;2022-07-21T06:27:03;2.10;;;1.80;;
12316;SDS011;6222;50.866;6.744;2022-07-21T06:29:32;2.50;;;1.80;;
12316;SDS011;6222;50.866;6.744;2022-07-21T06:31:59;3.35;;;2.17;;
12316;SDS011;6222;50.866;6.744;2022-07-21T06:34:26;3.20;;;2.00;;
12316;SDS011;6222;50.866;6.744;2022-07-21T06:36:53;2.15;;;1.83;;
12316;SDS011;6222;50.866;6.744;2022-07-21T06:39:21;2.13;;;1.93;;
12316;SDS011;6222;50.866;6.744;2022-07-21T06:41:48;4.35;;;2.65;;
12316;SDS011;6222;50.866;6.744;2022-07-21T06:44:15;2.92;;;2.40;;
12316;SDS011;6222;50.866;6.744;2022-07-21T06:46:43;2.45;;;2.25;;
12316;SDS011;6222;50.866;6.744;2022-07-21T06:49:10;3.67;;;2.67;;
12316;SDS011;6222;50.866;6.744;2022-07-21T06:51:38;5.88;;;2.30;;
12316;SDS011;6222;50.866;6.744;2022-07-21T06:54:05;3.97;;;2.30;;
12316;SDS011;6222;50.866;6.744;2022-07-21T06:56:32;2.92;;;2.65;;
12316;SDS011;6222;50.866;6.744;2022-07-21T06:58:59;3.83;;;2.85;;
12316;SDS011;6222;50.866;6.744;2022-07-21T07:01:26;2.97;;;2.40;;
12316;SDS011;6222;50.866;6.744;2022-07-21T07:03:55;3.70;;;2.80;;
12316;SDS011;6222;50.866;6.744;2022-07-21T07:06:22;3.92;;;2.63;;
12316;SDS011;6222;50.866;6.744;2022-07-21T07:08:49;3.40;;;2.75;;
12316;SDS011;6222;50.866;6.744;2022-07-21T07:11:16;4.05;;;2.90;;
12316;SDS011;6222;50.866;6.744;2022-07-21T07:13:43;3.90;;;2.70;;
12316;SDS011;6222;50.866;6.744;2022-07-21T07:16:10;4.07;;;2.72;;
12316;SDS011;6222;50.866;6.744;2022-07-21T07:18:37;3.47;;;2.92;;
12316;SDS011;6222;50.866;6.744;2022-07-21T07:21:06;3.20;;;2.90;;
12316;SDS011;6222;50.866;6.744;2022-07-21T07:23:33;4.00;;;3.10;;
12316;SDS011;6222;50.866;6.744;2022-07-21T07:26:00;3.37;;;3.00;;
12316;SDS011;6222;50.866;6.744;2022-07-21T07:28:27;5.65;;;4.25;;
12316;SDS011;6222;50.866;6.744;2022-07-21T07:30:54;5.28;;;3.88;;
12316;SDS011;6222;50.866;6.744;2022-07-21T07:33:21;4.17;;;3.63;;
12316;SDS011;6222;50.866;6.744;2022-07-21T07:35:50;4.00;;;3.55;;
12316;SDS011;6222;50.866;6.744;2022-07-21T07:38:18;4.10;;;3.70;;
12316;SDS011;6222;50.866;6.744;2022-07-21T07:40:45;4.25;;;3.58;;
12316;SDS011;6222;50.866;6.744;2022-07-21T07:43:13;3.30;;;3.00;;
12316;SDS011;6222;50.866;6.744;2022-07-21T07:45:40;3.42;;;3.00;;
12316;SDS011;6222;50.866;6.744;2022-07-21T07:48:07;4.38;;;3.30;;
12316;SDS011;6222;50.866;6.744;2022-07-21T07:50:34;4.43;;;3.20;;
12316;SDS011;6222;50.866;6.744;2022-07-21T07:53:01;3.92;;;3.28;;
12316;SDS011;6222;50.866;6.744;2022-07-21T07:55:30;3.85;;;3.20;;
12316;SDS011;6222;50.866;6.744;2022-07-21T07:57:57;4.45;;;3.30;;
12316;SDS011;6222;50.866;6.744;2022-07-21T08:00:24;4.05;;;3.10;;
12316;SDS011;6222;50.866;6.744;2022-07-21T08:02:51;3.78;;;3.38;;
12316;SDS011;6222;50.866;6.744;2022-07-21T08:05:18;5.22;;;3.55;;
12316;SDS011;6222;50.866;6.744;2022-07-21T08:07:45;5.00;;;3.37;;
12316;SDS011;6222;50.866;6.744;2022-07-21T08:10:12;5.57;;;4.63;;
12316;SDS011;6222;50.866;6.744;2022-07-21T08:12:41;5.10;;;3.45;;
12316;SDS011;6222;50.866;6.744;2022-07-21T08:15:08;3.75;;;3.30;;
12316;SDS011;6222;50.866;6.744;2022-07-21T08:17:36;4.15;;;3.42;;
12316;SDS011;6222;50.866;6.744;2022-07-21T08:20:03;4.47;;;3.43;;
12316;SDS011;6222;50.866;6.744;2022-07-21T08:22:31;6.13;;;4.00;;
12316;SDS011;6222;50.866;6.744;2022-07-21T08:24:58;4.00;;;3.60;;
12316;SDS011;6222;50.866;6.744;2022-07-21T08:27:25;4.30;;;3.50;;
12316;SDS011;6222;50.866;6.744;2022-07-21T08:29:54;6.80;;;4.20;;
12316;SDS011;6222;50.866;6.744;2022-07-21T08:32:21;5.60;;;4.13;;
12316;SDS011;6222;50.866;6.744;2022-07-21T08:34:48;6.00;;;4.17;;
12316;SDS011;6222;50.866;6.744;2022-07-21T08:37:15;5.65;;;4.00;;
12316;SDS011;6222;50.866;6.744;2022-07-21T08:39:42;5.63;;;4.05;;
12316;SDS011;6222;50.866;6.744;2022-07-21T08:42:09;5.20;;;3.92;;
12316;SDS011;6222;50.866;6.744;2022-07-21T08:44:37;4.80;;;4.30;;
12316;SDS011;6222;50.866;6.744;2022-07-21T08:47:06;4.93;;;4.10;;
12316;SDS011;6222;50.866;6.744;2022-07-21T08:49:33;4.55;;;3.97;;
12316;SDS011;6222;50.866;6.744;2022-07-21T08:52:01;4.68;;;3.60;;
12316;SDS011;6222;50.866;6.744;2022-07-21T08:54:28;4.78;;;3.70;;
12316;SDS011;6222;50.866;6.744;2022-07-21T08:56:55;4.65;;;3.58;;
12316;SDS011;6222;50.866;6.744;2022-07-21T08:59:22;5.20;;;3.70;;
12316;SDS011;6222;50.866;6.744;2022-07-21T09:01:49;4.55;;;3.80;;
12316;SDS011;6222;50.866;6.744;2022-07-21T09:04:27;3.92;;;3.53;;
12316;SDS011;6222;50.866;6.744;2022-07-21T09:06:55;4.53;;;4.10;;
12316;SDS011;6222;50.866;6.744;2022-07-21T09:09:23;5.17;;;3.33;;
12316;SDS011;6222;50.866;6.744;2022-07-21T09:11:51;4.57;;;3.20;;
12316;SDS011;6222;50.866;6.744;2022-07-21T09:14:18;5.20;;;3.70;;
12316;SDS011;6222;50.866;6.744;2022-07-21T09:16:47;3.80;;;3.40;;
12316;SDS011;6222;50.866;6.744;2022-07-21T09:19:16;3.92;;;3.40;;
12316;SDS011;6222;50.866;6.744;2022-07-21T09:21:45;5.60;;;3.43;;
12316;SDS011;6222;50.866;6.744;2022-07-21T09:24:13;4.25;;;3.30;;
12316;SDS011;6222;50.866;6.744;2022-07-21T09:26:59;7.68;;;5.22;;
12316;SDS011;6222;50.866;6.744;2022-07-21T09:29:27;6.57;;;3.88;;
12316;SDS011;6222;50.866;6.744;2022-07-21T09:32:00;4.40;;;3.33;;
12316;SDS011;6222;50.866;6.744;2022-07-21T09:34:38;4.45;;;3.30;;
12316;SDS011;6222;50.866;6.744;2022-07-21T09:37:06;3.55;;;3.25;;
12316;SDS011;6222;50.866;6.744;2022-07-21T09:39:40;5.90;;;3.53;;
12316;SDS011;6222;50.866;6.744;2022-07-21T09:42:11;4.23;;;3.70;;
12316;SDS011;6222;50.866;6.744;2022-07-21T09:44:38;3.70;;;3.30;;
12316;SDS011;6222;50.866;6.744;2022-07-21T09:47:11;4.03;;;3.35;;
12316;SDS011;6222;50.866;6.744;2022-07-21T09:49:39;4.15;;;3.00;;
12316;SDS011;6222;50.866;6.744;2022-07-21T09:52:18;4.67;;;3.20;;
12316;SDS011;6222;50.866;6.744;2022-07-21T09:54:45;5.93;;;5.32;;
12316;SDS011;6222;50.866;6.744;2022-07-21T09:57:13;3.55;;;2.60;;
12316;SDS011;6222;50.866;6.744;2022-07-21T09:59:42;4.05;;;3.13;;
12316;SDS011;6222;50.866;6.744;2022-07-21T10:02:09;3.80;;;2.80;;
12316;SDS011;6222;50.866;6.744;2022-07-21T10:04:37;3.03;;;2.58;;
12316;SDS011;6222;50.866;6.744;2022-07-21T10:07:04;4.30;;;2.80;;
12316;SDS011;6222;50.866;6.744;2022-07-21T10:09:33;3.38;;;2.88;;
12316;SDS011;6222;50.866;6.744;2022-07-21T10:12:00;5.40;;;2.90;;
12316;SDS011;6222;50.866;6.744;2022-07-21T10:14:28;3.80;;;2.87;;
12316;SDS011;6222;50.866;6.744;2022-07-21T10:16:55;3.17;;;2.88;;
12316;SDS011;6222;50.866;6.744;2022-07-21T10:19:24;4.13;;;2.97;;
12316;SDS011;6222;50.866;6.744;2022-07-21T10:21:55;3.87;;;2.83;;
12316;SDS011;6222;50.866;6.744;2022-07-21T10:24:25;4.57;;;2.88;;
12316;SDS011;6222;50.866;6.744;2022-07-21T10:27:00;3.92;;;2.95;;
12316;SDS011;6222;50.866;6.744;2022-07-21T10:32:14;4.60;;;3.13;;
12316;SDS011;6222;50.866;6.744;2022-07-21T10:34:41;5.18;;;3.40;;
12316;SDS011;6222;50.866;6.744;2022-07-21T10:37:09;5.90;;;3.67;;
12316;SDS011;6222;50.866;6.744;2022-07-21T10:39:36;4.43;;;3.50;;
12316;SDS011;6222;50.866;6.744;2022-07-21T10:42:14;5.03;;;3.42;;
12316;SDS011;6222;50.866;6.744;2022-07-21T10:44:45;5.47;;;3.50;;
12316;SDS011;6222;50.866;6.744;2022-07-21T10:47:13;4.85;;;3.90;;
12316;SDS011;6222;50.866;6.744;2022-07-21T10:49:51;4.32;;;3.75;;
12316;SDS011;6222;50.866;6.744;2022-07-21T10:55:13;4.88;;;4.10;;
12316;SDS011;6222;50.866;6.744;2022-07-21T10:57:43;5.45;;;4.53;;
12316;SDS011;6222;50.866;6.744;2022-07-21T11:00:18;6.20;;;4.68;;
12316;SDS011;6222;50.866;6.744;2022-07-21T11:02:46;6.70;;;4.90;;
12316;SDS011;6222;50.866;6.744;2022-07-21T11:05:14;6.88;;;5.78;;
12316;SDS011;6222;50.866;6.744;2022-07-21T11:10:28;6.95;;;5.80;;
12316;SDS011;6222;50.866;6.744;2022-07-21T11:12:58;7.13;;;5.80;;
12316;SDS011;6222;50.866;6.744;2022-07-21T11:18:07;6.80;;;5.70;;
12316;SDS011;6222;50.866;6.744;2022-07-21T11:20:34;7.40;;;5.90;;
12316;SDS011;6222;50.866;6.744;2022-07-21T11:23:01;9.50;;;6.33;;
12316;SDS011;6222;50.866;6.744;2022-07-21T11:25:29;8.00;;;6.70;;
12316;SDS011;6222;50.866;6.744;2022-07-21T11:27:56;8.75;;;6.60;;
12316;SDS011;6222;50.866;6.744;2022-07-21T11:30:24;10.20;;;7.05;;
12316;SDS011;6222;50.866;6.744;2022-07-21T11:32:52;8.35;;;6.68;;
12316;SDS011;6222;50.866;6.744;2022-07-21T11:35:19;9.68;;;7.25;;
12316;SDS011;6222;50.866;6.744;2022-07-21T11:37:46;7.65;;;6.53;;
12316;SDS011;6222;50.866;6.744;2022-07-21T11:40:14;8.27;;;6.80;;
12316;SDS011;6222;50.866;6.744;2022-07-21T11:42:42;9.20;;;7.85;;
12316;SDS011;6222;50.866;6.744;2022-07-21T11:45:09;10.38;;;8.38;;
12316;SDS011;6222;50.866;6.744;2022-07-21T11:47:39;9.60;;;7.87;;
12316;SDS011;6222;50.866;6.744;2022-07-21T11:50:07;10.80;;;7.13;;
12316;SDS011;6222;50.866;6.744;2022-07-21T11:52:35;11.10;;;8.10;;
12316;SDS011;6222;50.866;6.744;2022-07-21T11:55:03;8.60;;;7.70;;
12316;SDS011;6222;50.866;6.744;2022-07-21T11:57:31;9.23;;;7.53;;
12316;SDS011;6222;50.866;6.744;2022-07-21T11:59:58;10.05;;;8.15;;
12316;SDS011;6222;50.866;6.744;2022-07-21T12:02:29;13.70;;;9.20;;
12316;SDS011;6222;50.866;6.744;2022-07-21T12:04:58;9.23;;;7.97;;
12316;SDS011;6222;50.866;6.744;2022-07-21T12:07:26;11.07;;;8.02;;
12316;SDS011;6222;50.866;6.744;2022-07-21T12:09:55;8.55;;;7.65;;
12316;SDS011;6222;50.866;6.744;2022-07-21T12:12:32;11.18;;;8.30;;
12316;SDS011;6222;50.866;6.744;2022-07-21T12:15:09;10.68;;;7.85;;
12316;SDS011;6222;50.866;6.744;2022-07-21T12:17:37;10.40;;;8.68;;
12316;SDS011;6222;50.866;6.744;2022-07-21T12:20:07;10.77;;;8.80;;
12316;SDS011;6222;50.866;6.744;2022-07-21T12:22:35;9.60;;;8.25;;
12316;SDS011;6222;50.866;6.744;2022-07-21T12:25:02;11.20;;;8.85;;
12316;SDS011;6222;50.866;6.744;2022-07-21T12:27:31;10.70;;;8.10;;
12316;SDS011;6222;50.866;6.744;2022-07-21T12:29:58;10.20;;;8.63;;
12316;SDS011;6222;50.866;6.744;2022-07-21T12:35:22;10.15;;;8.57;;
12316;SDS011;6222;50.866;6.744;2022-07-21T12:37:53;11.23;;;8.80;;
12316;SDS011;6222;50.866;6.744;2022-07-21T12:40:21;9.93;;;8.48;;
12316;SDS011;6222;50.866;6.744;2022-07-21T12:42:48;10.05;;;8.70;;
12316;SDS011;6222;50.866;6.744;2022-07-21T12:45:16;9.75;;;8.63;;
12316;SDS011;6222;50.866;6.744;2022-07-21T12:47:43;10.20;;;8.45;;
12316;SDS011;6222;50.866;6.744;2022-07-21T12:50:13;11.57;;;9.35;;
12316;SDS011;6222;50.866;6.744;2022-07-21T12:52:42;11.23;;;9.27;;
12316;SDS011;6222;50.866;6.744;2022-07-21T12:55:09;11.00;;;9.52;;
12316;SDS011;6222;50.866;6.744;2022-07-21T12:57:36;10.68;;;9.30;;
12316;SDS011;6222;50.866;6.744;2022-07-21T13:00:04;13.73;;;10.27;;
12316;SDS011;6222;50.866;6.744;2022-07-21T13:02:40;12.65;;;9.57;;
12316;SDS011;6222;50.866;6.744;2022-07-21T13:05:12;12.35;;;10.13;;
12316;SDS011;6222;50.866;6.744;2022-07-21T13:07:39;14.52;;;10.68;;
12316;SDS011;6222;50.866;6.744;2022-07-21T13:10:07;14.37;;;10.53;;
12316;SDS011;6222;50.866;6.744;2022-07-21T13:12:35;12.25;;;9.32;;
12316;SDS011;6222;50.866;6.744;2022-07-21T13:15:02;13.80;;;10.75;;
12316;SDS011;6222;50.866;6.744;2022-07-21T13:17:29;10.95;;;9.80;;
12316;SDS011;6222;50.866;6.744;2022-07-21T13:19:57;10.52;;;9.35;;
12316;SDS011;6222;50.866;6.744;2022-07-21T13:22:24;12.27;;;10.32;;
12316;SDS011;6222;50.866;6.744;2022-07-21T13:24:53;11.43;;;10.03;;
12316;SDS011;6222;50.866;6.744;2022-07-21T13:27:21;10.43;;;9.07;;
12316;SDS011;6222;50.866;6.744;2022-07-21T13:29:49;10.70;;;9.60;;
12316;SDS011;6222;50.866;6.744;2022-07-21T13:32:17;6.53;;;5.50;;
12316;SDS011;6222;50.866;6.744;2022-07-21T13:34:45;6.78;;;5.30;;
12316;SDS011;6222;50.866;6.744;2022-07-21T13:37:12;5.53;;;5.03;;
12316;SDS011;6222;50.866;6.744;2022-07-21T13:39:39;5.95;;;5.10;;
12316;SDS011;6222;50.866;6.744;2022-07-21T13:42:07;6.78;;;5.50;;
12316;SDS011;6222;50.866;6.744;2022-07-21T13:44:35;8.18;;;7.20;;
12316;SDS011;6222;50.866;6.744;2022-07-21T13:47:03;6.13;;;5.50;;
12316;SDS011;6222;50.866;6.744;2022-07-21T13:49:30;6.72;;;5.40;;
12316;SDS011;6222;50.866;6.744;2022-07-21T13:51:57;8.15;;;6.00;;
12316;SDS011;6222;50.866;6.744;2022-07-21T13:54:24;6.15;;;5.43;;
12316;SDS011;6222;50.866;6.744;2022-07-21T13:56:51;6.20;;;5.60;;
12316;SDS011;6222;50.866;6.744;2022-07-21T13:59:19;6.70;;;6.00;;
12316;SDS011;6222;50.866;6.744;2022-07-21T14:01:47;8.20;;;6.07;;
12316;SDS011;6222;50.866;6.744;2022-07-21T14:04:14;8.67;;;6.03;;
12316;SDS011;6222;50.866;6.744;2022-07-21T14:06:41;7.78;;;7.00;;
12316;SDS011;6222;50.866;6.744;2022-07-21T14:09:11;7.80;;;6.70;;
12316;SDS011;6222;50.866;6.744;2022-07-21T14:11:38;7.37;;;6.57;;
12316;SDS011;6222;50.866;6.744;2022-07-21T14:14:05;8.02;;;6.80;;
12316;SDS011;6222;50.866;6.744;2022-07-21T14:16:32;7.85;;;7.00;;
12316;SDS011;6222;50.866;6.744;2022-07-21T14:19:01;9.25;;;7.18;;
12316;SDS011;6222;50.866;6.744;2022-07-21T14:21:28;8.07;;;7.28;;
12316;SDS011;6222;50.866;6.744;2022-07-21T14:23:55;8.52;;;7.63;;
12316;SDS011;6222;50.866;6.744;2022-07-21T14:26:36;31.75;;;29.02;;
12316;SDS011;6222;50.866;6.744;2022-07-21T14:29:04;10.32;;;8.35;;
12316;SDS011;6222;50.866;6.744;2022-07-21T14:31:31;9.63;;;7.70;;
12316;SDS011;6222;50.866;6.744;2022-07-21T14:33:58;9.88;;;7.85;;
12316;SDS011;6222;50.866;6.744;2022-07-21T14:36:26;10.00;;;7.80;;
12316;SDS011;6222;50.866;6.744;2022-07-21T14:38:54;9.60;;;7.75;;
12316;SDS011;6222;50.866;6.744;2022-07-21T14:41:21;9.40;;;8.02;;
12316;SDS011;6222;50.866;6.744;2022-07-21T14:43:48;9.75;;;8.60;;
12316;SDS011;6222;50.866;6.744;2022-07-21T14:46:15;13.23;;;11.23;;
12316;SDS011;6222;50.866;6.744;2022-07-21T14:48:42;9.00;;;7.90;;
12316;SDS011;6222;50.866;6.744;2022-07-21T14:51:09;9.80;;;7.93;;
12316;SDS011;6222;50.866;6.744;2022-07-21T14:53:38;9.35;;;7.60;;
12316;SDS011;6222;50.866;6.744;2022-07-21T14:56:05;11.30;;;7.75;;
12316;SDS011;6222;50.866;6.744;2022-07-21T14:58:32;9.05;;;7.40;;
12316;SDS011;6222;50.866;6.744;2022-07-21T15:01:00;7.85;;;6.22;;
12316;SDS011;6222;50.866;6.744;2022-07-21T15:03:27;7.78;;;5.97;;
12316;SDS011;6222;50.866;6.744;2022-07-21T15:05:54;7.57;;;6.22;;
12316;SDS011;6222;50.866;6.744;2022-07-21T15:08:21;9.20;;;6.33;;
12316;SDS011;6222;50.866;6.744;2022-07-21T15:10:49;7.70;;;6.65;;
12316;SDS011;6222;50.866;6.744;2022-07-21T15:13:16;9.93;;;7.32;;
12316;SDS011;6222;50.866;6.744;2022-07-21T15:15:44;8.60;;;7.18;;
12316;SDS011;6222;50.866;6.744;2022-07-21T15:18:12;9.75;;;7.30;;